Time;durP1;ratioP1;P1;durP2;ratioP2;P2;SDS_P1;SDS_P2;PMS_P1;PMS_P2;Temp;Humidity;BMP_temperature;BMP_pressure;BME280_temperature;BME280_humidity;BME280_pressure;Samples;Min_cycle;Max_cycle;Signal;HPM_P1;HPM_P2
2021/07/13 00:00:36;;;;;;;25.38;13.07;;;16.10;99.90;;;;;;5036031;28;20105;-48
2021/07/13 00:03:04;;;;;;;23.10;12.65;;;16.00;99.90;;;;;;5035816;28;20045;-45
2021/07/13 00:05:29;;;;;;;26.30;14.93;;;16.00;99.90;;;;;;5035756;28;20060;-42
2021/07/13 00:07:55;;;;;;;22.80;13.00;;;16.00;99.90;;;;;;5034600;28;20065;-48
2021/07/13 00:10:26;;;;;;;19.75;13.45;;;16.00;99.90;;;;;;5035727;28;20033;-46
2021/07/13 00:12:53;;;;;;;31.33;16.10;;;16.00;99.90;;;;;;5035784;28;20465;-46
2021/07/13 00:15:25;;;;;;;23.08;14.73;;;16.00;99.90;;;;;;5035687;28;20029;-46
2021/07/13 00:17:52;;;;;;;25.17;15.23;;;15.90;99.90;;;;;;5035710;28;20033;-45
2021/07/13 00:20:19;;;;;;;23.33;14.02;;;16.00;99.90;;;;;;5035539;28;20504;-47
2021/07/13 00:22:45;;;;;;;25.05;13.25;;;15.90;99.90;;;;;;5034401;28;20034;-43
2021/07/13 00:25:11;;;;;;;21.90;12.82;;;15.90;99.90;;;;;;5035603;28;20036;-44
2021/07/13 00:27:37;;;;;;;25.85;14.57;;;15.90;99.90;;;;;;5035529;28;20025;-46
2021/07/13 00:30:05;;;;;;;25.90;14.60;;;15.90;99.90;;;;;;5035545;28;20358;-49
2021/07/13 00:32:30;;;;;;;37.40;17.92;;;15.90;99.90;;;;;;5035325;28;20025;-49
2021/07/13 00:34:56;;;;;;;29.40;16.75;;;15.90;99.90;;;;;;5035429;28;20358;-50
2021/07/13 00:37:21;;;;;;;23.33;13.98;;;15.90;99.90;;;;;;5034105;28;20362;-43
2021/07/13 00:39:47;;;;;;;23.77;14.10;;;15.80;99.90;;;;;;5035312;28;20099;-44
2021/07/13 00:42:14;;;;;;;31.10;15.25;;;15.80;99.90;;;;;;5035265;28;20022;-45
2021/07/13 00:44:42;;;;;;;34.38;16.98;;;15.80;99.90;;;;;;5035168;28;20024;-50
2021/07/13 00:47:08;;;;;;;24.17;13.75;;;15.80;99.90;;;;;;5034721;28;20029;-45
2021/07/13 00:49:33;;;;;;;29.65;17.20;;;15.80;99.90;;;;;;5035029;28;20030;-47
2021/07/13 00:52:00;;;;;;;31.88;17.42;;;15.80;99.90;;;;;;5034030;28;20484;-47
2021/07/13 00:54:26;;;;;;;27.25;16.55;;;15.80;99.90;;;;;;5035041;28;20029;-42
2021/07/13 00:56:54;;;;;;;20.42;13.65;;;15.80;99.90;;;;;;5034934;28;20041;-49
2021/07/13 00:59:20;;;;;;;22.63;13.82;;;15.80;99.90;;;;;;5034964;28;20028;-48
2021/07/13 01:01:47;;;;;;;26.77;14.68;;;15.70;99.90;;;;;;5034788;28;20029;-44
2021/07/13 01:04:15;;;;;;;24.55;13.90;;;15.70;99.90;;;;;;5034661;28;20065;-44
2021/07/13 01:06:54;;;;;;;21.58;13.95;;;15.70;99.90;;;;;;5033528;28;20017;-45
2021/07/13 01:09:45;;;;;;;34.72;16.45;;;15.70;99.90;;;;;;5034697;28;20037;-45
2021/07/13 01:12:49;;;;;;;25.70;14.85;;;15.60;99.90;;;;;;5026334;28;20084;-47
2021/07/13 01:15:18;;;;;;;34.15;17.58;;;15.70;99.90;;;;;;5034600;28;20084;-44
2021/07/13 01:17:58;;;;;;;33.30;16.00;;;15.70;99.90;;;;;;5034591;28;20075;-47
2021/07/13 01:20:59;;;;;;;26.10;14.32;;;15.70;99.90;;;;;;5034542;28;20057;-46
2021/07/13 01:23:58;;;;;;;22.90;13.00;;;15.60;99.90;;;;;;5033213;28;20064;-44
2021/07/13 01:27:03;;;;;;;25.30;12.75;;;15.60;99.90;;;;;;5034468;28;20104;-44
2021/07/13 01:29:32;;;;;;;26.38;15.23;;;15.60;99.90;;;;;;5034304;28;20495;-44
2021/07/13 01:32:00;;;;;;;30.67;15.65;;;15.60;99.90;;;;;;5034315;28;20064;-45
2021/07/13 01:34:35;;;;;;;27.85;13.88;;;15.50;99.90;;;;;;5034288;28;20025;-43
2021/07/13 01:37:03;;;;;;;19.20;12.57;;;15.50;99.90;;;;;;5032883;28;20095;-45
2021/07/13 01:39:31;;;;;;;33.10;17.80;;;15.50;99.90;;;;;;5034033;28;20021;-46
2021/07/13 01:42:01;;;;;;;30.63;16.48;;;15.50;99.90;;;;;;5034135;28;20481;-47
2021/07/13 01:44:29;;;;;;;27.30;16.45;;;15.50;99.90;;;;;;5034103;28;20133;-44
2021/07/13 01:46:54;;;;;;;27.95;16.38;;;15.50;99.90;;;;;;5034023;28;20065;-48
2021/07/13 01:49:24;;;;;;;30.88;17.38;;;15.50;99.90;;;;;;5033990;28;20477;-48
2021/07/13 01:51:52;;;;;;;28.92;17.05;;;15.50;99.90;;;;;;5032528;28;20064;-49
2021/07/13 01:54:19;;;;;;;33.50;16.63;;;15.50;99.90;;;;;;5033910;28;20033;-49
2021/07/13 01:56:48;;;;;;;26.95;15.35;;;15.50;99.90;;;;;;5033763;28;20381;-47
2021/07/13 01:59:17;;;;;;;24.42;14.93;;;15.50;99.90;;;;;;5031831;28;20474;-46
2021/07/13 02:01:45;;;;;;;24.15;13.68;;;15.50;99.90;;;;;;5033734;28;20469;-45
2021/07/13 02:04:11;;;;;;;29.90;17.02;;;15.50;99.90;;;;;;5033861;28;20117;-47
2021/07/13 02:06:38;;;;;;;27.13;15.93;;;15.50;99.90;;;;;;5032309;28;20171;-48
2021/07/13 02:09:07;;;;;;;28.42;15.02;;;15.50;99.90;;;;;;5033584;28;20045;-45
2021/07/13 02:11:33;;;;;;;33.72;17.17;;;15.50;99.90;;;;;;5033604;28;20026;-45
2021/07/13 02:13:59;;;;;;;29.73;16.67;;;15.50;99.90;;;;;;5033576;28;20033;-51
2021/07/13 02:16:24;;;;;;;21.58;13.85;;;15.50;99.90;;;;;;5033433;28;20033;-46
2021/07/13 02:18:50;;;;;;;31.00;15.77;;;15.50;99.90;;;;;;5033392;28;20064;-49
2021/07/13 02:21:17;;;;;;;24.20;13.63;;;15.40;99.90;;;;;;5033321;28;20044;-45
2021/07/13 02:23:43;;;;;;;23.63;13.05;;;15.40;99.90;;;;;;5032045;28;20108;-45
2021/07/13 02:26:15;;;;;;;22.35;13.82;;;15.40;99.90;;;;;;5033389;28;20083;-45
2021/07/13 02:28:44;;;;;;;28.45;15.23;;;15.40;99.90;;;;;;5033245;28;20029;-45
2021/07/13 02:31:11;;;;;;;20.58;12.05;;;15.30;99.90;;;;;;5033280;28;20017;-45
2021/07/13 02:33:51;;;;;;;31.88;17.08;;;15.30;99.90;;;;;;5033095;28;20032;-46
2021/07/13 02:36:19;;;;;;;32.10;15.85;;;15.30;99.90;;;;;;5033104;28;20033;-48
2021/07/13 02:38:46;;;;;;;24.10;13.43;;;15.30;99.90;;;;;;5032056;28;20021;-49
2021/07/13 02:41:14;;;;;;;41.45;19.13;;;15.30;99.90;;;;;;5032994;28;20387;-49
2021/07/13 02:43:40;;;;;;;23.95;14.20;;;15.30;99.90;;;;;;5033023;28;20033;-49
2021/07/13 02:46:06;;;;;;;27.92;16.48;;;15.30;99.90;;;;;;5032974;28;20095;-46
2021/07/13 02:48:37;;;;;;;32.58;15.93;;;15.30;99.90;;;;;;5032961;28;20037;-47
2021/07/13 02:51:03;;;;;;;32.20;18.33;;;15.30;99.90;;;;;;5033031;28;20100;-44
2021/07/13 02:53:29;;;;;;;27.52;16.17;;;15.30;99.90;;;;;;5031734;28;20041;-45
2021/07/13 02:55:56;;;;;;;33.40;17.08;;;15.30;99.90;;;;;;5032850;28;20025;-47
2021/07/13 02:58:22;;;;;;;25.30;15.63;;;15.30;99.90;;;;;;5032895;28;20026;-43
2021/07/13 03:00:49;;;;;;;32.58;18.48;;;15.30;99.90;;;;;;5032638;28;20026;-43
2021/07/13 03:03:16;;;;;;;31.63;17.13;;;15.30;99.90;;;;;;5032683;28;20133;-47
2021/07/13 03:05:42;;;;;;;29.25;18.50;;;15.40;99.90;;;;;;5032767;28;20108;-46
2021/07/13 03:08:08;;;;;;;29.75;17.48;;;15.40;99.90;;;;;;5031429;28;20033;-49
2021/07/13 03:10:35;;;;;;;31.80;18.40;;;15.50;99.90;;;;;;5034392;28;20025;-46
2021/07/13 03:13:01;;;;;;;28.70;17.80;;;15.60;99.90;;;;;;5036920;28;20129;-46
2021/07/13 03:15:31;;;;;;;33.75;17.58;;;15.60;99.90;;;;;;5036765;28;20104;-45
2021/07/13 03:17:57;;;;;;;34.53;19.38;;;15.70;99.90;;;;;;5036883;28;20056;-46
2021/07/13 03:20:24;;;;;;;32.38;19.15;;;15.70;99.90;;;;;;5036807;28;20025;-47
2021/07/13 03:22:51;;;;;;;32.83;17.42;;;15.80;99.90;;;;;;5035506;28;20072;-46
2021/07/13 03:25:23;;;;;;;28.25;17.70;;;15.80;99.90;;;;;;5036677;28;20398;-47
2021/07/13 03:27:51;;;;;;;29.92;17.42;;;15.90;99.90;;;;;;5035239;28;20025;-44
2021/07/13 03:30:17;;;;;;;28.48;18.23;;;15.90;99.90;;;;;;5036664;28;20026;-43
2021/07/13 03:32:43;;;;;;;30.35;17.27;;;16.00;99.90;;;;;;5035284;28;20026;-47
2021/07/13 03:35:10;;;;;;;29.75;18.40;;;16.00;99.90;;;;;;5036473;28;20030;-47
2021/07/13 03:37:35;;;;;;;30.23;18.65;;;16.10;99.90;;;;;;5035262;28;20029;-48
2021/07/13 03:40:02;;;;;;;32.42;20.20;;;16.20;99.90;;;;;;5036382;28;20030;-48
2021/07/13 03:42:28;;;;;;;31.35;19.58;;;16.30;99.90;;;;;;5036192;28;20029;-46
2021/07/13 03:44:53;;;;;;;23.17;15.75;;;16.40;99.90;;;;;;5036301;28;20026;-47
2021/07/13 03:47:20;;;;;;;31.08;18.73;;;16.50;99.90;;;;;;5036344;28;20022;-47
2021/07/13 03:49:47;;;;;;;29.55;19.67;;;16.70;99.90;;;;;;5036246;28;20033;-46
2021/07/13 03:52:13;;;;;;;32.60;22.02;;;17.30;99.90;;;;;;5033702;28;20026;-45
2021/07/13 03:54:39;;;;;;;28.70;20.52;;;18.20;99.90;;;;;;5036148;28;20075;-47
2021/07/13 03:57:06;;;;;;;25.15;18.58;;;19.00;99.90;;;;;;5035982;28;20469;-50
2021/07/13 03:59:31;;;;;;;22.00;17.55;;;19.70;99.90;;;;;;5036110;28;20034;-48
2021/07/13 04:01:57;;;;;;;17.90;14.75;;;20.30;99.90;;;;;;5036008;28;20063;-44
2021/07/13 04:04:22;;;;;;;16.50;13.60;;;21.00;99.90;;;;;;5035850;28;20393;-45
2021/07/13 04:06:48;;;;;;;14.10;11.60;;;21.70;99.90;;;;;;5034600;28;20038;-45
2021/07/13 04:09:13;;;;;;;12.70;11.10;;;21.80;99.90;;;;;;5035927;28;20473;-43
2021/07/13 04:11:39;;;;;;;13.15;11.75;;;22.10;99.90;;;;;;5035734;28;20033;-46
2021/07/13 04:14:05;;;;;;;13.00;11.80;;;22.80;99.90;;;;;;5035821;28;20551;-47
2021/07/13 04:16:31;;;;;;;12.70;10.85;;;23.30;99.90;;;;;;5035709;28;20060;-49
2021/07/13 04:18:57;;;;;;;13.88;11.18;;;24.00;99.90;;;;;;5035627;28;20370;-48
2021/07/13 04:21:23;;;;;;;11.65;9.00;;;24.20;99.90;;;;;;5035061;28;20029;-46
2021/07/13 04:23:48;;;;;;;12.60;10.18;;;24.00;99.90;;;;;;5033994;28;20197;-48
2021/07/13 04:26:14;;;;;;;11.18;9.95;;;24.20;99.90;;;;;;5035482;28;20034;-48
2021/07/13 04:28:40;;;;;;;11.73;10.60;;;24.30;99.90;;;;;;5035502;28;20029;-49
2021/07/13 04:31:05;;;;;;;10.57;9.10;;;24.80;99.90;;;;;;5035464;28;20400;-43
2021/07/13 04:33:31;;;;;;;11.27;10.05;;;25.20;99.90;;;;;;5035489;28;20029;-45
2021/07/13 04:35:57;;;;;;;11.57;9.85;;;25.20;99.90;;;;;;5035327;28;20075;-47
2021/07/13 04:38:23;;;;;;;10.68;9.57;;;25.10;99.90;;;;;;5034061;28;20097;-48
2021/07/13 04:40:49;;;;;;;10.48;8.13;;;24.90;99.90;;;;;;5035198;28;20021;-43
2021/07/13 04:43:15;;;;;;;11.70;9.73;;;25.30;99.90;;;;;;5035269;28;20033;-49
2021/07/13 04:45:40;;;;;;;10.32;9.32;;;25.60;99.90;;;;;;5035225;28;20040;-43
2021/07/13 04:48:06;;;;;;;12.27;9.23;;;26.20;99.90;;;;;;5035197;28;20310;-46
2021/07/13 04:50:32;;;;;;;9.43;8.52;;;26.80;99.90;;;;;;5035162;28;20094;-45
2021/07/13 04:52:57;;;;;;;9.18;8.27;;;27.40;99.90;;;;;;5033791;28;20476;-44
2021/07/13 04:55:23;;;;;;;9.35;8.55;;;28.00;99.90;;;;;;5035069;28;20533;-46
2021/07/13 04:57:48;;;;;;;9.10;8.20;;;28.50;99.90;;;;;;5034920;28;20401;-46
2021/07/13 05:00:15;;;;;;;8.48;7.68;;;28.80;99.90;;;;;;5033799;28;20109;-46
2021/07/13 05:02:41;;;;;;;9.85;8.20;;;29.00;99.90;;;;;;5034812;28;20038;-43
2021/07/13 05:05:10;;;;;;;8.68;7.93;;;29.30;99.90;;;;;;5034851;28;20021;-47
2021/07/13 05:07:39;;;;;;;9.18;8.27;;;29.50;99.90;;;;;;5033542;28;20032;-44
2021/07/13 05:10:05;;;;;;;10.00;8.88;;;29.70;99.90;;;;;;5034549;28;20021;-45
2021/07/13 05:12:31;;;;;;;7.43;6.72;;;29.60;99.90;;;;;;5034751;28;20025;-52
2021/07/13 05:14:56;;;;;;;9.70;7.90;;;30.10;99.90;;;;;;5034621;28;20037;-46
2021/07/13 05:17:22;;;;;;;8.23;7.45;;;30.20;99.90;;;;;;5034538;28;20029;-47
2021/07/13 05:19:49;;;;;;;8.98;8.18;;;30.00;99.90;;;;;;5034593;28;20025;-47
2021/07/13 05:22:15;;;;;;;8.40;7.43;;;29.90;99.90;;;;;;5033290;28;20018;-44
2021/07/13 05:24:40;;;;;;;8.57;7.72;;;29.80;99.90;;;;;;5034392;28;20032;-43
2021/07/13 05:27:06;;;;;;;7.95;7.32;;;30.40;99.90;;;;;;5034419;28;20025;-44
2021/07/13 05:29:32;;;;;;;8.38;7.50;;;30.80;99.90;;;;;;5034385;28;20030;-46
2021/07/13 05:31:58;;;;;;;7.75;7.05;;;31.10;99.90;;;;;;5034356;28;20060;-44
2021/07/13 05:34:23;;;;;;;7.97;7.28;;;31.20;99.90;;;;;;5034252;28;20034;-44
2021/07/13 05:36:49;;;;;;;8.65;7.85;;;30.90;99.90;;;;;;5032861;28;20041;-45
2021/07/13 05:39:14;;;;;;;8.00;7.22;;;31.50;99.90;;;;;;5034092;28;20147;-46
2021/07/13 05:41:40;;;;;;;8.30;7.60;;;31.10;99.90;;;;;;5034123;28;20362;-44
2021/07/13 05:44:09;;;;;;;9.65;8.82;;;31.10;99.90;;;;;;5034084;28;20034;-48
2021/07/13 05:46:34;;;;;;;8.50;7.70;;;30.60;99.90;;;;;;5034079;28;20029;-45
2021/07/13 05:49:00;;;;;;;7.70;6.95;;;30.60;99.90;;;;;;5034010;28;20087;-43
2021/07/13 05:51:26;;;;;;;8.63;7.13;;;31.00;99.90;;;;;;5033514;28;20033;-45
2021/07/13 05:53:51;;;;;;;8.52;7.72;;;30.80;99.90;;;;;;5032990;28;20064;-43
2021/07/13 05:56:17;;;;;;;9.98;7.05;;;30.70;99.90;;;;;;5033790;28;20025;-43
2021/07/13 05:58:42;;;;;;;8.63;7.72;;;30.90;99.90;;;;;;5033825;28;20466;-47
2021/07/13 06:01:08;;;;;;;8.77;7.88;;;31.00;99.90;;;;;;5032511;28;20030;-44
2021/07/13 06:03:34;;;;;;;6.72;6.13;;;31.10;99.90;;;;;;5033591;28;20087;-44
2021/07/13 06:06:00;;;;;;;8.07;7.03;;;31.90;99.90;;;;;;5033642;28;20083;-45
2021/07/13 06:08:25;;;;;;;7.38;6.60;;;32.20;99.90;;;;;;5032321;28;20037;-44
2021/07/13 06:10:51;;;;;;;7.13;6.53;;;31.90;99.90;;;;;;5033490;28;20030;-44
2021/07/13 06:13:17;;;;;;;7.05;6.35;;;32.10;99.90;;;;;;5033622;28;20029;-44
2021/07/13 06:15:42;;;;;;;6.97;6.38;;;32.50;99.90;;;;;;5033443;28;20362;-44
2021/07/13 06:18:08;;;;;;;8.73;7.18;;;32.70;99.90;;;;;;5033467;28;20108;-44
2021/07/13 06:20:35;;;;;;;6.25;5.75;;;32.70;99.90;;;;;;5033477;28;20110;-44
2021/07/13 06:23:01;;;;;;;7.00;6.50;;;32.80;99.90;;;;;;5032075;28;20409;-43
2021/07/13 06:25:26;;;;;;;7.22;6.55;;;33.00;99.90;;;;;;5033374;28;20029;-45
2021/07/13 06:27:52;;;;;;;7.15;6.30;;;33.10;99.90;;;;;;5033413;28;20033;-49
2021/07/13 06:30:18;;;;;;;9.43;7.55;;;33.20;99.90;;;;;;5033257;28;20036;-43
2021/07/13 06:32:44;;;;;;;7.20;6.57;;;32.90;99.90;;;;;;5033265;28;20021;-44
2021/07/13 06:35:11;;;;;;;7.25;6.55;;;33.10;99.90;;;;;;5033146;28;20032;-43
2021/07/13 06:37:36;;;;;;;6.68;6.07;;;33.80;99.90;;;;;;5031888;28;20017;-48
2021/07/13 06:40:04;;;;;;;6.75;6.15;;;34.00;99.90;;;;;;5033051;28;20026;-43
2021/07/13 06:42:30;;;;;;;6.88;6.28;;;34.60;99.90;;;;;;5033158;28;20071;-46
2021/07/13 06:44:55;;;;;;;6.45;5.75;;;34.80;99.90;;;;;;5032691;28;20033;-46
2021/07/13 06:47:21;;;;;;;6.15;5.50;;;35.00;99.90;;;;;;5033066;28;20029;-43
2021/07/13 06:49:46;;;;;;;6.10;5.55;;;35.00;99.90;;;;;;5033046;28;20022;-46
2021/07/13 06:52:12;;;;;;;6.20;5.70;;;35.20;99.90;;;;;;5031723;28;20030;-45
2021/07/13 06:54:37;;;;;;;6.55;5.95;;;35.20;99.90;;;;;;5032838;28;20036;-49
2021/07/13 06:57:03;;;;;;;6.18;5.68;;;35.70;99.90;;;;;;5033100;28;20037;-45
2021/07/13 06:59:29;;;;;;;8.52;6.20;;;35.90;99.90;;;;;;5032903;28;20059;-45
2021/07/13 07:01:54;;;;;;;6.35;5.85;;;36.00;99.90;;;;;;5032893;28;20025;-47
2021/07/13 07:04:20;;;;;;;7.00;6.30;;;35.80;99.90;;;;;;5032673;28;20038;-47
2021/07/13 07:06:45;;;;;;;5.90;5.40;;;36.30;99.90;;;;;;5031543;28;20057;-49
2021/07/13 07:09:11;;;;;;;6.68;6.10;;;36.80;99.90;;;;;;5031339;28;20599;-47
2021/07/13 07:11:37;;;;;;;6.80;6.10;;;37.30;99.20;;;;;;5032767;28;20032;-48
2021/07/13 07:14:02;;;;;;;6.40;5.90;;;36.30;92.00;;;;;;5032709;28;20017;-46
2021/07/13 07:16:28;;;;;;;6.05;5.28;;;36.20;96.20;;;;;;5032652;28;20034;-45
2021/07/13 07:18:53;;;;;;;6.53;5.93;;;36.90;96.50;;;;;;5032718;28;20053;-47
2021/07/13 07:21:19;;;;;;;5.50;5.10;;;37.10;92.50;;;;;;5032663;28;20026;-46
2021/07/13 07:23:44;;;;;;;6.82;5.30;;;37.50;92.20;;;;;;5031312;28;20040;-46
2021/07/13 07:26:10;;;;;;;4.88;4.47;;;37.70;91.30;;;;;;5031365;28;20025;-48
2021/07/13 07:28:35;;;;;;;6.82;5.10;;;38.00;82.40;;;;;;5032681;28;20060;-50
2021/07/13 07:31:01;;;;;;;7.35;5.25;;;39.00;73.80;;;;;;5032511;28;20033;-48
2021/07/13 07:33:26;;;;;;;6.05;5.55;;;39.30;65.60;;;;;;5032555;28;20060;-47
2021/07/13 07:35:52;;;;;;;5.60;5.10;;;39.20;62.40;;;;;;5032401;28;20022;-46
2021/07/13 07:38:17;;;;;;;5.80;5.30;;;39.30;62.00;;;;;;5031078;28;20028;-47
2021/07/13 07:40:44;;;;;;;5.10;4.70;;;39.50;59.10;;;;;;5032484;28;20033;-44
2021/07/13 07:43:09;;;;;;;6.43;5.38;;;39.70;57.20;;;;;;5032484;28;20063;-47
2021/07/13 07:45:35;;;;;;;6.45;4.97;;;39.80;53.10;;;;;;5032542;28;20416;-46
2021/07/13 07:48:02;;;;;;;5.90;4.82;;;38.60;54.00;;;;;;5032388;28;20040;-46
2021/07/13 07:50:28;;;;;;;5.30;4.80;;;37.90;55.60;;;;;;5032419;28;20052;-46
2021/07/13 07:52:53;;;;;;;7.10;4.38;;;37.60;57.80;;;;;;5031007;28;20477;-45
2021/07/13 07:55:22;;;;;;;5.20;4.80;;;37.20;59.00;;;;;;5032281;28;20030;-46
2021/07/13 07:57:48;;;;;;;5.28;4.88;;;37.50;58.90;;;;;;5034280;28;20017;-45
2021/07/13 08:00:14;;;;;;;5.85;5.03;;;38.60;57.00;;;;;;5036077;28;20029;-47
2021/07/13 08:02:40;;;;;;;5.28;4.80;;;39.00;53.70;;;;;;5035829;28;20524;-45
2021/07/13 08:05:08;;;;;;;6.05;4.80;;;39.40;52.20;;;;;;5036010;28;20047;-46
2021/07/13 08:07:33;;;;;;;6.82;5.15;;;39.00;50.90;;;;;;5034624;28;20025;-46
2021/07/13 08:09:59;;;;;;;4.38;3.97;;;38.00;53.10;;;;;;5035893;28;20057;-46
2021/07/13 08:12:25;;;;;;;5.32;4.35;;;38.00;53.30;;;;;;5035841;28;20495;-45
2021/07/13 08:14:50;;;;;;;5.65;4.38;;;38.00;53.80;;;;;;5035978;28;20080;-47
2021/07/13 08:17:16;;;;;;;6.07;4.90;;;38.50;53.40;;;;;;5035732;28;20039;-46
2021/07/13 08:19:41;;;;;;;5.40;4.40;;;39.00;51.80;;;;;;5035841;28;20026;-48
2021/07/13 08:22:08;;;;;;;5.15;4.63;;;40.00;50.20;;;;;;5034355;28;20026;-46
2021/07/13 08:24:34;;;;;;;4.65;4.13;;;40.30;48.50;;;;;;5035730;28;20528;-47
2021/07/13 08:27:01;;;;;;;4.32;3.92;;;40.50;47.50;;;;;;5035589;28;20056;-47
2021/07/13 08:29:27;;;;;;;6.03;4.28;;;40.80;46.50;;;;;;5035506;28;20022;-45
2021/07/13 08:31:56;;;;;;;5.68;4.00;;;41.00;46.00;;;;;;5035560;28;20074;-45
2021/07/13 08:34:23;;;;;;;3.50;3.20;;;41.30;44.50;;;;;;5035438;28;20100;-44
2021/07/13 08:36:49;;;;;;;3.90;3.58;;;41.10;43.20;;;;;;5034043;28;20400;-44
2021/07/13 08:39:14;;;;;;;4.82;3.03;;;41.00;42.10;;;;;;5035396;28;20027;-48
2021/07/13 08:41:40;;;;;;;3.00;2.75;;;40.60;42.00;;;;;;5035313;28;20361;-47
2021/07/13 08:44:06;;;;;;;3.00;2.80;;;40.20;40.90;;;;;;5034007;28;20416;-50
2021/07/13 08:46:32;;;;;;;2.67;2.47;;;40.10;40.60;;;;;;5035302;28;20350;-47
2021/07/13 08:49:02;;;;;;;3.08;2.88;;;39.90;39.90;;;;;;5035277;28;20033;-47
2021/07/13 08:51:28;;;;;;;2.80;2.60;;;39.90;40.00;;;;;;5033856;28;20483;-46
2021/07/13 08:53:53;;;;;;;4.47;2.90;;;40.20;39.80;;;;;;5035081;28;20026;-47
2021/07/13 08:56:19;;;;;;;3.17;2.97;;;40.70;40.00;;;;;;5035007;28;20034;-48
2021/07/13 08:58:45;;;;;;;3.40;3.10;;;40.40;39.30;;;;;;5035038;28;20373;-49
2021/07/13 09:01:10;;;;;;;3.22;2.92;;;40.00;39.80;;;;;;5034937;28;20025;-46
2021/07/13 09:03:36;;;;;;;5.90;2.72;;;40.00;40.30;;;;;;5034814;28;20090;-44
2021/07/13 09:06:02;;;;;;;4.78;3.30;;;40.60;40.20;;;;;;5034831;28;20156;-46
2021/07/13 09:08:34;;;;;;;3.42;3.13;;;39.80;40.10;;;;;;5033119;28;20025;-46
2021/07/13 09:11:15;;;;;;;3.40;3.10;;;39.70;40.20;;;;;;5033451;28;20495;-45
2021/07/13 09:13:51;;;;;;;2.85;2.63;;;39.80;40.50;;;;;;5034776;28;20139;-47
2021/07/13 09:16:22;;;;;;;3.45;3.22;;;38.80;41.20;;;;;;5034569;28;20029;-46
2021/07/13 09:18:55;;;;;;;3.85;3.50;;;38.80;42.00;;;;;;5034589;28;20489;-47
2021/07/13 09:21:24;;;;;;;4.65;3.78;;;37.70;42.90;;;;;;5034103;28;20025;-45
2021/07/13 09:24:11;;;;;;;3.80;3.50;;;36.80;45.40;;;;;;5034580;28;20484;-50
2021/07/13 09:26:47;;;;;;;3.20;3.00;;;37.10;45.50;;;;;;5034478;28;20068;-45
2021/07/13 09:29:31;;;;;;;3.33;3.08;;;36.70;45.90;;;;;;5034400;28;20551;-46
2021/07/13 09:32:15;;;;;;;3.50;3.20;;;36.50;45.40;;;;;;5034464;28;20030;-45
2021/07/13 09:34:53;;;;;;;2.80;2.60;;;36.70;42.60;;;;;;5034561;28;20377;-45
2021/07/13 09:37:23;;;;;;;3.10;2.60;;;36.80;43.70;;;;;;5032843;28;20025;-44
2021/07/13 09:40:04;;;;;;;3.25;2.95;;;35.80;45.30;;;;;;5034277;28;20036;-45
2021/07/13 09:42:32;;;;;;;3.95;2.88;;;35.80;44.60;;;;;;5032894;28;20030;-47
2021/07/13 09:45:22;;;;;;;3.83;2.85;;;35.70;44.80;;;;;;5034218;28;20026;-44
2021/07/13 09:47:50;;;;;;;2.80;2.60;;;36.40;44.30;;;;;;5034024;28;20025;-45
2021/07/13 09:50:46;;;;;;;2.50;2.30;;;36.50;43.60;;;;;;5034082;28;20071;-49
2021/07/13 09:53:17;;;;;;;3.97;2.42;;;36.50;43.20;;;;;;5032803;28;20076;-48
2021/07/13 09:55:44;;;;;;;2.70;2.50;;;36.00;44.10;;;;;;5033873;28;20029;-45
2021/07/13 09:58:23;;;;;;;2.75;2.55;;;35.80;43.90;;;;;;5033790;28;20068;-48
2021/07/13 10:00:57;;;;;;;5.10;3.13;;;35.50;44.30;;;;;;5033994;28;20425;-48
2021/07/13 10:03:23;;;;;;;2.53;2.33;;;34.20;45.20;;;;;;5033704;28;20091;-44
2021/07/13 10:05:53;;;;;;;3.00;2.72;;;33.50;47.10;;;;;;5033862;28;20037;-45
2021/07/13 10:08:19;;;;;;;3.05;2.83;;;33.00;48.60;;;;;;5032427;28;20036;-43
2021/07/13 10:10:46;;;;;;;5.47;2.42;;;32.80;49.90;;;;;;5033616;28;20022;-43
2021/07/13 10:13:14;;;;;;;2.97;2.67;;;32.50;50.40;;;;;;5032358;28;20033;-43
2021/07/13 10:15:41;;;;;;;3.67;2.78;;;32.10;51.20;;;;;;5033439;28;20033;-44
2021/07/13 10:18:07;;;;;;;3.20;2.90;;;31.80;52.60;;;;;;5033417;28;20380;-45
2021/07/13 10:20:34;;;;;;;3.15;2.90;;;31.60;54.20;;;;;;5032768;28;20025;-47
2021/07/13 10:23:02;;;;;;;3.05;2.78;;;31.50;54.80;;;;;;5032306;28;20029;-43
2021/07/13 10:25:39;;;;;;;3.03;2.78;;;31.20;55.30;;;;;;5033439;28;20017;-48
2021/07/13 10:28:06;;;;;;;4.28;3.13;;;31.00;57.60;;;;;;5033418;28;20041;-48
2021/07/13 10:30:31;;;;;;;3.60;3.00;;;30.70;58.00;;;;;;5033349;28;20097;-46
2021/07/13 10:32:57;;;;;;;5.70;3.08;;;30.50;59.20;;;;;;5033346;28;20417;-45
2021/07/13 10:35:24;;;;;;;2.80;2.60;;;30.50;60.10;;;;;;5033181;28;20083;-48
2021/07/13 10:38:06;;;;;;;3.30;3.00;;;30.40;60.20;;;;;;5031985;28;20024;-43
2021/07/13 10:40:33;;;;;;;2.88;2.67;;;30.30;59.30;;;;;;5033122;28;20017;-44
2021/07/13 10:43:04;;;;;;;4.20;3.22;;;30.30;60.00;;;;;;5033223;28;20022;-45
2021/07/13 10:45:41;;;;;;;3.22;2.92;;;30.30;61.30;;;;;;5033101;28;20032;-46
2021/07/13 10:48:18;;;;;;;3.20;3.00;;;30.30;60.20;;;;;;5033115;28;20017;-46
2021/07/13 10:50:57;;;;;;;3.05;2.83;;;30.20;61.40;;;;;;5033069;28;20173;-46
2021/07/13 10:53:29;;;;;;;3.53;3.20;;;29.90;59.80;;;;;;5031772;28;20515;-47
2021/07/13 10:56:17;;;;;;;3.33;3.03;;;29.70;58.60;;;;;;5032873;28;20033;-45
2021/07/13 10:58:47;;;;;;;4.65;3.63;;;29.70;60.70;;;;;;5032823;28;20074;-46
2021/07/13 11:01:15;;;;;;;3.50;3.20;;;29.70;61.20;;;;;;5032932;28;20022;-45
2021/07/13 11:03:41;;;;;;;3.67;3.38;;;29.80;62.00;;;;;;5032729;28;20105;-45
2021/07/13 11:06:07;;;;;;;3.90;3.55;;;30.00;61.90;;;;;;5032946;28;20025;-49
2021/07/13 11:08:44;;;;;;;4.00;3.60;;;30.20;61.60;;;;;;5031606;28;20388;-45
2021/07/13 11:11:15;;;;;;;3.60;3.30;;;30.30;60.80;;;;;;5032680;28;20029;-48
2021/07/13 11:14:05;;;;;;;4.00;3.60;;;30.40;60.60;;;;;;5032777;28;20435;-42
2021/07/13 11:16:33;;;;;;;4.07;3.25;;;30.50;58.80;;;;;;5032638;28;20029;-46
2021/07/13 11:19:01;;;;;;;7.03;4.00;;;30.40;60.70;;;;;;5032810;28;20048;-45
2021/07/13 11:21:35;;;;;;;5.57;4.22;;;30.40;63.30;;;;;;5031286;28;20032;-44
2021/07/13 11:24:05;;;;;;;3.88;3.55;;;30.20;65.60;;;;;;5032720;28;20030;-44
2021/07/13 11:26:33;;;;;;;4.45;4.05;;;30.10;65.50;;;;;;5032573;28;20393;-47
2021/07/13 11:29:00;;;;;;;4.00;3.70;;;30.00;66.50;;;;;;5032729;28;20026;-46
2021/07/13 11:31:28;;;;;;;4.53;3.90;;;29.90;67.60;;;;;;5034046;28;20034;-44
2021/07/13 11:34:12;;;;;;;4.07;3.75;;;29.80;67.80;;;;;;5036482;28;20032;-44
2021/07/13 11:36:40;;;;;;;4.55;4.15;;;30.00;67.50;;;;;;5035188;28;20040;-44
2021/07/13 11:39:10;;;;;;;4.78;4.38;;;30.10;66.80;;;;;;5036573;28;20021;-47
2021/07/13 11:41:36;;;;;;;5.97;4.68;;;30.00;68.20;;;;;;5036463;28;20318;-45
2021/07/13 11:44:04;;;;;;;6.85;4.60;;;29.80;69.30;;;;;;5036417;28;20028;-49
2021/07/13 11:46:35;;;;;;;4.78;4.32;;;29.60;70.70;;;;;;5036164;28;20468;-43
2021/07/13 11:49:11;;;;;;;5.28;4.20;;;29.70;71.50;;;;;;5036269;28;20041;-49
2021/07/13 11:52:00;;;;;;;4.60;3.70;;;29.70;69.20;;;;;;5034976;28;20030;-44
2021/07/13 11:54:28;;;;;;;5.38;4.28;;;29.80;68.20;;;;;;5036177;28;20026;-46
2021/07/13 11:56:56;;;;;;;4.50;4.13;;;29.80;70.80;;;;;;5036048;28;20109;-47
2021/07/13 11:59:24;;;;;;;5.15;4.53;;;29.90;68.20;;;;;;5036138;28;20064;-45
2021/07/13 12:01:54;;;;;;;3.95;3.65;;;30.00;64.90;;;;;;5036102;28;20573;-45
2021/07/13 12:04:21;;;;;;;7.20;4.50;;;30.00;65.70;;;;;;5035921;28;20407;-44
2021/07/13 12:06:51;;;;;;;8.02;4.20;;;30.10;66.80;;;;;;5034689;28;20032;-44
2021/07/13 12:09:23;;;;;;;4.82;4.32;;;30.00;68.60;;;;;;5035960;28;20539;-44
2021/07/13 12:11:49;;;;;;;5.18;4.70;;;30.00;69.10;;;;;;5035874;28;20109;-46
2021/07/13 12:14:16;;;;;;;7.22;5.13;;;30.00;69.20;;;;;;5035853;28;20113;-45
2021/07/13 12:16:44;;;;;;;5.95;5.20;;;29.90;70.20;;;;;;5035673;28;20504;-44
2021/07/13 12:19:18;;;;;;;6.57;4.30;;;29.90;70.20;;;;;;5035761;28;20540;-47
2021/07/13 12:21:47;;;;;;;5.18;4.32;;;29.80;70.80;;;;;;5034461;28;20100;-47
2021/07/13 12:24:16;;;;;;;7.70;4.47;;;29.80;72.90;;;;;;5035664;28;20026;-51
2021/07/13 12:26:53;;;;;;;4.85;4.35;;;29.60;72.00;;;;;;5035634;28;20029;-47
2021/07/13 12:29:43;;;;;;;4.68;4.28;;;29.60;70.40;;;;;;5035656;28;20029;-47
2021/07/13 12:32:17;;;;;;;5.05;4.38;;;29.60;70.90;;;;;;5035280;28;20037;-44
2021/07/13 12:34:44;;;;;;;4.55;3.92;;;29.50;69.60;;;;;;5035447;28;20531;-43
2021/07/13 12:37:16;;;;;;;4.25;3.92;;;29.50;69.30;;;;;;5032769;28;20476;-45
2021/07/13 12:39:45;;;;;;;5.65;3.88;;;29.50;68.70;;;;;;5035249;28;20029;-47
2021/07/13 12:42:16;;;;;;;5.57;3.75;;;29.60;68.70;;;;;;5035166;28;20136;-44
2021/07/13 12:44:43;;;;;;;4.32;3.92;;;29.50;68.50;;;;;;5034834;28;20018;-43
2021/07/13 12:47:20;;;;;;;5.25;4.75;;;29.50;68.70;;;;;;5035224;28;20223;-45